createdAt,value
2022-07-29T00:02:08.058Z,47.10
2022-07-29T00:04:56.547Z,47.10
2022-07-29T00:07:45.031Z,47.10
2022-07-29T00:10:33.677Z,47.30
2022-07-29T00:13:32.372Z,47.30
2022-07-29T00:16:23.101Z,47.80
2022-07-29T00:19:11.615Z,48.00
2022-07-29T00:22:01.228Z,47.70
2022-07-29T00:24:49.994Z,47.90
2022-07-29T00:27:38.562Z,48.10
2022-07-29T00:30:27.071Z,48.40
2022-07-29T00:33:17.133Z,48.30
2022-07-29T00:36:05.462Z,48.60
2022-07-29T00:38:53.993Z,48.60
2022-07-29T00:41:42.497Z,49.00
2022-07-29T00:44:30.959Z,48.80
2022-07-29T00:47:19.476Z,48.80
2022-07-29T00:50:11.360Z,49.20
2022-07-29T00:52:59.846Z,49.40
2022-07-29T00:55:48.322Z,49.50
2022-07-29T00:58:37.471Z,50.00
2022-07-29T01:01:25.995Z,50.00
2022-07-29T01:04:14.721Z,50.30
2022-07-29T01:07:06.524Z,50.40
2022-07-29T01:09:55.384Z,50.60
2022-07-29T01:12:44.283Z,50.70
2022-07-29T01:15:32.965Z,51.00
2022-07-29T01:18:26.309Z,51.40
2022-07-29T01:21:27.615Z,51.90
2022-07-29T01:24:50.981Z,52.10
2022-07-29T01:27:52.966Z,52.30
2022-07-29T01:30:42.895Z,52.50
2022-07-29T01:33:49.094Z,52.40
2022-07-29T01:36:39.267Z,52.80
2022-07-29T01:39:33.972Z,52.90
2022-07-29T01:42:28.509Z,53.70
2022-07-29T01:45:19.011Z,53.10
2022-07-29T01:48:15.577Z,53.40
2022-07-29T01:51:07.942Z,54.00
2022-07-29T01:54:11.879Z,53.90
2022-07-29T01:57:00.910Z,53.90
2022-07-29T01:59:49.658Z,53.90
2022-07-29T02:02:38.557Z,54.10
2022-07-29T02:05:29.080Z,54.20
2022-07-29T02:08:17.743Z,55.50
2022-07-29T02:11:06.311Z,55.40
2022-07-29T02:13:55.735Z,54.90
2022-07-29T02:16:44.273Z,55.40
2022-07-29T02:19:34.253Z,55.40
2022-07-29T02:22:24.158Z,55.80
2022-07-29T02:25:14.153Z,55.80
2022-07-29T02:28:02.938Z,55.70
2022-07-29T02:30:51.482Z,55.90
2022-07-29T02:33:39.981Z,56.00
2022-07-29T02:36:28.481Z,55.90
2022-07-29T02:39:18.372Z,55.70
2022-07-29T02:42:09.926Z,55.60
2022-07-29T02:44:58.372Z,55.60
2022-07-29T02:47:49.456Z,55.80
2022-07-29T02:50:41.273Z,55.20
2022-07-29T02:53:29.755Z,54.90
2022-07-29T02:56:19.772Z,54.60
2022-07-29T02:59:11.184Z,54.60
2022-07-29T03:02:00.538Z,54.50
2022-07-29T03:04:50.126Z,54.50
2022-07-29T03:07:38.721Z,54.40
2022-07-29T03:10:27.789Z,54.20
2022-07-29T03:13:17.696Z,54.00
2022-07-29T03:16:06.830Z,54.00
2022-07-29T03:18:55.425Z,53.70
2022-07-29T03:21:43.892Z,53.70
2022-07-29T03:24:33.747Z,53.80
2022-07-29T03:27:22.280Z,53.80
2022-07-29T03:30:18.425Z,53.80
2022-07-29T03:33:13.677Z,53.80
2022-07-29T03:36:03.353Z,53.60
2022-07-29T03:38:51.842Z,53.80
2022-07-29T03:41:42.606Z,53.80
2022-07-29T03:44:31.155Z,53.80
2022-07-29T03:47:43.700Z,53.90
2022-07-29T03:50:33.369Z,54.00
2022-07-29T03:53:21.839Z,54.00
2022-07-29T03:56:10.335Z,53.90
2022-07-29T03:58:58.810Z,54.00
2022-07-29T04:01:47.316Z,54.20
2022-07-29T04:04:37.331Z,54.10
2022-07-29T04:07:25.880Z,54.10
2022-07-29T04:10:14.571Z,54.30
2022-07-29T04:13:03.129Z,54.30
2022-07-29T04:15:52.005Z,54.20
2022-07-29T04:18:40.643Z,54.20
2022-07-29T04:21:30.537Z,54.30
2022-07-29T04:24:19.355Z,54.40
2022-07-29T04:27:08.291Z,54.40
2022-07-29T04:29:57.605Z,54.70
2022-07-29T04:32:46.422Z,54.60
2022-07-29T04:35:38.574Z,54.70
2022-07-29T04:38:28.773Z,54.90
2022-07-29T04:41:17.239Z,54.90
2022-07-29T04:44:09.298Z,55.00
2022-07-29T04:46:58.906Z,55.30
2022-07-29T04:49:47.454Z,55.60
2022-07-29T04:52:36.558Z,55.50
2022-07-29T04:55:26.488Z,55.60
2022-07-29T04:58:14.991Z,55.90
2022-07-29T05:01:03.534Z,56.10
2022-07-29T05:03:54.863Z,56.20
2022-07-29T05:06:45.608Z,56.30
2022-07-29T05:09:34.176Z,56.50
2022-07-29T05:12:23.987Z,56.80
2022-07-29T05:15:12.676Z,56.70
2022-07-29T05:18:01.575Z,56.80
2022-07-29T05:20:50.365Z,56.90
2022-07-29T05:23:39.034Z,57.00
2022-07-29T05:26:27.532Z,56.90
2022-07-29T05:29:44.365Z,57.20
2022-07-29T05:32:25.782Z,57.20
2022-07-29T05:35:14.686Z,57.30
2022-07-29T05:38:03.243Z,57.00
2022-07-29T05:40:51.718Z,56.70
2022-07-29T05:43:40.257Z,56.10
2022-07-29T05:46:30.404Z,55.60
2022-07-29T05:49:26.908Z,55.40
2022-07-29T05:52:16.010Z,55.50
2022-07-29T05:55:06.485Z,55.60
2022-07-29T05:57:55.079Z,56.00
2022-07-29T06:00:44.086Z,56.00
2022-07-29T06:03:33.914Z,55.90
2022-07-29T06:06:22.445Z,55.70
2022-07-29T06:09:12.183Z,55.70
2022-07-29T06:12:01.270Z,55.50
2022-07-29T06:14:53.925Z,55.20
2022-07-29T06:17:59.426Z,54.90
2022-07-29T06:20:50.911Z,54.60
2022-07-29T06:23:39.773Z,54.40
2022-07-29T06:26:31.485Z,54.30
2022-07-29T06:29:21.179Z,54.00
2022-07-29T06:32:10.117Z,53.70
2022-07-29T06:35:17.724Z,53.60
2022-07-29T06:38:31.516Z,53.60
2022-07-29T06:41:17.807Z,53.50
2022-07-29T06:44:06.526Z,53.50
2022-07-29T06:46:55.762Z,53.30
2022-07-29T06:49:44.357Z,53.50
2022-07-29T06:52:32.904Z,52.90
2022-07-29T06:55:25.354Z,52.60
2022-07-29T06:58:16.928Z,51.70
2022-07-29T07:01:11.984Z,51.60
2022-07-29T07:04:02.394Z,51.70
2022-07-29T07:06:50.922Z,51.80
2022-07-29T07:09:40.336Z,52.10
2022-07-29T07:12:30.895Z,52.50
2022-07-29T07:15:22.703Z,52.60
2022-07-29T07:18:27.826Z,52.90
2022-07-29T07:21:18.861Z,53.30
2022-07-29T07:24:08.775Z,53.30
2022-07-29T07:26:57.297Z,53.10
2022-07-29T07:29:47.170Z,53.20
2022-07-29T07:32:35.774Z,53.40
2022-07-29T07:35:24.301Z,53.70
2022-07-29T07:38:12.828Z,53.90
2022-07-29T07:41:01.358Z,53.80
2022-07-29T07:43:49.973Z,54.20
2022-07-29T07:46:39.811Z,54.40
2022-07-29T07:49:28.488Z,55.10
2022-07-29T07:52:17.312Z,55.10
2022-07-29T07:55:06.928Z,55.10
2022-07-29T07:57:55.488Z,55.20
2022-07-29T08:00:44.027Z,55.00
2022-07-29T08:03:34.823Z,55.10
2022-07-29T08:06:24.711Z,55.00
2022-07-29T08:09:28.075Z,54.90
2022-07-29T08:12:17.510Z,55.30
2022-07-29T08:15:08.614Z,55.70
2022-07-29T08:17:57.087Z,56.50
2022-07-29T08:20:46.915Z,56.00
2022-07-29T08:23:47.047Z,56.20
2022-07-29T08:26:37.348Z,56.20
2022-07-29T08:29:25.889Z,56.00
2022-07-29T08:32:22.272Z,55.90
2022-07-29T08:35:23.081Z,56.20
2022-07-29T08:38:12.923Z,56.20
2022-07-29T08:41:02.342Z,56.60
2022-07-29T08:43:51.936Z,56.80
2022-07-29T08:46:40.848Z,57.00
2022-07-29T08:49:29.378Z,57.20
2022-07-29T08:52:17.851Z,57.50
2022-07-29T08:55:09.250Z,57.30
2022-07-29T08:57:57.872Z,57.20
2022-07-29T09:00:50.670Z,57.00
2022-07-29T09:03:39.912Z,57.00
2022-07-29T09:06:29.954Z,56.70
2022-07-29T09:09:18.432Z,56.20
2022-07-29T09:12:09.166Z,55.70
2022-07-29T09:14:57.721Z,56.00
2022-07-29T09:17:47.830Z,55.90
2022-07-29T09:20:50.326Z,56.10
2022-07-29T09:23:40.664Z,55.30
2022-07-29T09:26:31.278Z,55.20
2022-07-29T09:29:22.909Z,55.30
2022-07-29T09:32:12.447Z,55.00
2022-07-29T09:35:16.873Z,54.90
2022-07-29T09:38:13.527Z,54.50
2022-07-29T09:41:05.589Z,54.50
2022-07-29T09:43:58.108Z,54.60
2022-07-29T09:46:59.637Z,54.40
2022-07-29T09:49:58.804Z,54.10
2022-07-29T09:52:49.388Z,54.20
2022-07-29T09:55:50.630Z,54.20
2022-07-29T09:58:40.382Z,54.00
2022-07-29T10:01:30.314Z,54.30
2022-07-29T10:04:20.490Z,54.40
2022-07-29T10:07:09.154Z,54.30
2022-07-29T10:09:59.126Z,54.60
2022-07-29T10:12:52.613Z,54.10
2022-07-29T10:15:44.626Z,54.00
2022-07-29T10:18:33.168Z,53.70
2022-07-29T10:21:35.522Z,53.10
2022-07-29T10:24:24.897Z,52.50
2022-07-29T10:27:13.664Z,52.70
2022-07-29T10:30:02.676Z,52.80
2022-07-29T10:33:13.453Z,52.50
2022-07-29T10:36:15.465Z,51.90
2022-07-29T10:39:12.456Z,52.20
2022-07-29T10:42:16.930Z,52.00
2022-07-29T10:45:08.949Z,52.40
2022-07-29T10:48:07.942Z,52.40
2022-07-29T10:50:58.322Z,52.30
2022-07-29T10:53:51.349Z,52.60
2022-07-29T10:56:41.499Z,52.20
2022-07-29T10:59:36.367Z,51.70
2022-07-29T11:02:45.065Z,51.40
2022-07-29T11:05:56.020Z,50.40
2022-07-29T11:08:44.581Z,50.00
2022-07-29T11:11:36.606Z,49.80
2022-07-29T11:14:58.994Z,49.60
2022-07-29T11:18:15.282Z,49.60
2022-07-29T11:21:05.862Z,49.30
2022-07-29T11:23:54.648Z,49.80
2022-07-29T11:26:43.428Z,50.00
2022-07-29T11:29:39.990Z,48.70
2022-07-29T11:32:40.152Z,49.20
2022-07-29T11:35:38.465Z,49.30
2022-07-29T11:38:29.334Z,49.30
2022-07-29T11:41:27.648Z,49.30
2022-07-29T11:44:17.994Z,48.70
2022-07-29T11:47:06.735Z,48.60
2022-07-29T11:49:58.079Z,48.50
2022-07-29T11:55:58.518Z,47.50
2022-07-29T11:58:47.085Z,47.80
2022-07-29T12:01:35.555Z,48.10
2022-07-29T12:04:24.810Z,48.20
2022-07-29T12:07:16.222Z,48.60
2022-07-29T12:10:06.222Z,48.40
2022-07-29T12:12:54.818Z,48.50
2022-07-29T12:15:47.148Z,48.40
2022-07-29T12:18:35.926Z,48.50
2022-07-29T12:21:25.729Z,48.70
2022-07-29T12:24:15.831Z,48.80
2022-07-29T12:27:04.775Z,47.90
2022-07-29T12:30:00.668Z,48.10
2022-07-29T12:32:50.013Z,48.20
2022-07-29T12:35:38.449Z,48.10
2022-07-29T12:38:27.030Z,47.80
2022-07-29T12:41:16.889Z,48.00
2022-07-29T12:44:05.959Z,47.50
2022-07-29T12:47:04.552Z,47.70
2022-07-29T12:49:53.303Z,47.10
2022-07-29T12:52:41.773Z,47.80
2022-07-29T12:55:44.446Z,46.50
2022-07-29T12:58:36.308Z,46.40
2022-07-29T13:01:24.882Z,46.70
2022-07-29T13:04:13.388Z,46.60
2022-07-29T13:07:04.538Z,46.30
2022-07-29T13:09:53.608Z,46.50
2022-07-29T13:12:42.309Z,46.20
2022-07-29T13:15:32.477Z,45.80
2022-07-29T13:18:30.428Z,46.10
2022-07-29T13:21:19.094Z,46.30
2022-07-29T13:24:08.961Z,46.70
2022-07-29T13:26:57.459Z,46.90
2022-07-29T13:29:46.003Z,46.70
2022-07-29T13:32:37.253Z,46.90
2022-07-29T13:35:25.765Z,47.10
2022-07-29T13:38:14.392Z,47.00
2022-07-29T13:41:03.109Z,47.10
2022-07-29T13:43:51.843Z,47.00
2022-07-29T13:46:40.321Z,46.20
2022-07-29T13:49:30.225Z,45.90
2022-07-29T13:52:18.767Z,44.90
2022-07-29T13:55:09.770Z,44.60
2022-07-29T13:57:58.270Z,42.60
2022-07-29T14:00:47.593Z,42.20
2022-07-29T14:03:37.609Z,42.40
2022-07-29T14:06:27.481Z,42.90
2022-07-29T14:09:18.493Z,43.50
2022-07-29T14:12:07.753Z,43.20
2022-07-29T14:14:56.214Z,43.60
2022-07-29T14:17:44.680Z,43.80
2022-07-29T14:20:33.565Z,43.70
2022-07-29T14:23:23.409Z,43.90
2022-07-29T14:26:15.799Z,43.30
2022-07-29T14:29:10.009Z,43.10
2022-07-29T14:31:59.502Z,43.50
2022-07-29T14:34:48.365Z,43.40
2022-07-29T14:37:40.125Z,42.80
2022-07-29T14:40:30.677Z,42.80
2022-07-29T14:43:20.437Z,43.00
2022-07-29T14:46:10.395Z,43.20
2022-07-29T14:48:59.003Z,43.40
2022-07-29T14:51:47.563Z,43.40
2022-07-29T14:54:35.984Z,43.20
2022-07-29T14:57:26.295Z,43.60
2022-07-29T15:00:15.913Z,43.50
2022-07-29T15:03:04.566Z,43.00
2022-07-29T15:05:53.104Z,43.20
2022-07-29T15:08:41.815Z,43.50
2022-07-29T15:11:30.371Z,43.00
2022-07-29T15:14:26.838Z,43.10
2022-07-29T15:17:15.709Z,43.10
2022-07-29T15:20:04.681Z,43.10
2022-07-29T15:22:53.194Z,43.30
2022-07-29T15:25:41.761Z,42.80
2022-07-29T15:28:30.318Z,43.00
2022-07-29T15:31:20.686Z,44.00
2022-07-29T15:34:09.238Z,44.00
2022-07-29T15:36:57.731Z,44.10
2022-07-29T15:39:46.203Z,44.10
2022-07-29T15:42:34.781Z,44.30
2022-07-29T15:45:23.733Z,44.40
2022-07-29T15:48:14.892Z,44.60
2022-07-29T15:51:03.522Z,44.60
2022-07-29T15:53:53.313Z,44.70
2022-07-29T15:56:42.305Z,44.70
2022-07-29T15:59:30.938Z,44.90
2022-07-29T16:02:19.709Z,44.90
2022-07-29T16:05:09.984Z,44.80
2022-07-29T16:08:00.570Z,44.70
2022-07-29T16:10:49.033Z,44.80
2022-07-29T16:13:37.944Z,45.00
2022-07-29T16:16:26.996Z,45.00
2022-07-29T16:19:15.697Z,44.90
2022-07-29T16:22:05.848Z,45.10
2022-07-29T16:27:24.706Z,44.70
2022-07-29T16:30:13.778Z,45.20
2022-07-29T16:33:06.417Z,45.70
2022-07-29T16:35:56.613Z,48.10
2022-07-29T16:38:46.971Z,49.90
2022-07-29T16:41:36.079Z,53.70
2022-07-29T16:44:25.948Z,53.80
2022-07-29T16:48:53.683Z,54.90
2022-07-29T16:51:42.604Z,54.90
2022-07-29T16:54:31.165Z,55.70
2022-07-29T16:57:19.675Z,56.60
2022-07-29T17:00:09.893Z,57.30
2022-07-29T17:03:00.016Z,58.00
2022-07-29T17:05:52.220Z,58.90
2022-07-29T17:08:42.649Z,59.80
2022-07-29T17:11:52.452Z,60.20
2022-07-29T17:14:40.195Z,63.10
2022-07-29T17:17:38.606Z,63.50
2022-07-29T17:20:37.229Z,66.50
2022-07-29T17:23:27.159Z,69.00
2022-07-29T17:26:15.873Z,72.70
2022-07-29T17:29:04.439Z,73.80
2022-07-29T17:31:53.183Z,75.00
2022-07-29T17:34:42.662Z,77.40
2022-07-29T17:37:31.226Z,79.40
2022-07-29T17:40:21.602Z,80.70
2022-07-29T17:43:10.252Z,83.80
2022-07-29T17:45:59.630Z,84.30
2022-07-29T17:48:48.441Z,84.90
2022-07-29T17:51:37.051Z,85.90
2022-07-29T17:54:25.558Z,87.30
2022-07-29T17:57:16.609Z,89.30
2022-07-29T18:00:08.329Z,89.60
2022-07-29T18:02:57.272Z,90.30
2022-07-29T18:05:46.015Z,89.50
2022-07-29T18:08:34.966Z,90.50
2022-07-29T18:11:23.739Z,90.60
2022-07-29T18:14:13.662Z,90.60
2022-07-29T18:17:02.309Z,91.00
2022-07-29T18:19:52.731Z,90.90
2022-07-29T18:22:41.282Z,91.30
2022-07-29T18:25:29.881Z,91.50
2022-07-29T18:28:18.383Z,91.30
2022-07-29T18:31:08.330Z,91.80
2022-07-29T18:33:59.958Z,92.00
2022-07-29T18:36:48.723Z,91.90
2022-07-29T18:39:37.253Z,91.90
2022-07-29T18:42:25.808Z,92.10
2022-07-29T18:45:19.305Z,92.20
2022-07-29T18:48:13.264Z,92.40
2022-07-29T18:51:02.433Z,92.70
2022-07-29T18:53:58.030Z,92.50
2022-07-29T18:56:46.742Z,92.90
2022-07-29T18:59:35.630Z,93.00
2022-07-29T19:02:24.716Z,92.90
2022-07-29T19:05:14.673Z,93.40
2022-07-29T19:08:04.179Z,93.70
2022-07-29T19:10:53.368Z,93.40
2022-07-29T19:13:42.064Z,93.30
2022-07-29T19:16:30.608Z,93.90
2022-07-29T19:19:19.138Z,93.90
2022-07-29T19:22:09.186Z,94.00
2022-07-29T19:24:57.834Z,94.50
2022-07-29T19:27:46.850Z,94.60
2022-07-29T19:30:35.364Z,94.40
2022-07-29T19:33:23.845Z,94.40
2022-07-29T19:36:12.317Z,94.60
2022-07-29T19:39:02.392Z,94.70
2022-07-29T19:41:50.866Z,94.90
2022-07-29T19:44:45.841Z,94.70
2022-07-29T19:47:34.388Z,94.80
2022-07-29T19:50:23.172Z,95.00
2022-07-29T19:53:12.415Z,95.10
2022-07-29T19:56:02.334Z,94.90
2022-07-29T19:58:51.944Z,95.20
2022-07-29T20:01:40.547Z,95.30
2022-07-29T20:04:29.285Z,95.40
2022-07-29T20:07:17.810Z,95.60
2022-07-29T20:10:07.659Z,95.40
2022-07-29T20:13:00.159Z,95.40
2022-07-29T20:15:48.723Z,95.50
2022-07-29T20:18:37.282Z,95.20
2022-07-29T20:21:26.762Z,95.20
2022-07-29T20:24:15.239Z,95.20
2022-07-29T20:27:03.761Z,95.20
2022-07-29T20:30:03.243Z,95.30
2022-07-29T20:32:51.908Z,95.30
2022-07-29T20:35:40.987Z,95.20
2022-07-29T20:38:30.579Z,95.20
2022-07-29T20:41:19.151Z,95.30
2022-07-29T20:44:07.681Z,95.30
2022-07-29T20:46:57.821Z,95.30
2022-07-29T20:49:46.495Z,95.30
2022-07-29T20:52:35.066Z,95.10
2022-07-29T20:55:23.617Z,95.20
2022-07-29T20:58:12.168Z,95.20
2022-07-29T21:01:00.733Z,95.30
2022-07-29T21:03:50.810Z,95.10
2022-07-29T21:06:39.390Z,95.50
2022-07-29T21:09:28.376Z,95.20
2022-07-29T21:12:17.308Z,95.50
2022-07-29T21:15:06.963Z,95.60
2022-07-29T21:18:00.550Z,95.60
2022-07-29T21:20:50.400Z,95.50
2022-07-29T21:23:38.876Z,95.90
2022-07-29T21:26:27.472Z,95.70
2022-07-29T21:29:15.532Z,95.80
2022-07-29T21:32:04.224Z,95.80
2022-07-29T21:34:52.686Z,96.00
2022-07-29T21:37:42.553Z,96.00
2022-07-29T21:40:31.129Z,96.30
2022-07-29T21:43:19.920Z,96.50
2022-07-29T21:46:08.426Z,96.70
2022-07-29T21:48:57.139Z,96.60
2022-07-29T21:51:45.917Z,96.70
2022-07-29T21:54:35.932Z,96.80
2022-07-29T21:57:26.378Z,97.10
2022-07-29T22:00:15.905Z,97.40
2022-07-29T22:03:04.864Z,97.40
2022-07-29T22:05:53.431Z,97.30
2022-07-29T22:08:45.395Z,97.30
2022-07-29T22:11:36.673Z,97.50
2022-07-29T22:14:25.117Z,97.70
2022-07-29T22:17:14.118Z,97.70
2022-07-29T22:20:02.736Z,97.80
2022-07-29T22:22:51.198Z,98.10
2022-07-29T22:25:39.720Z,98.10
2022-07-29T22:28:29.580Z,98.20
2022-07-29T22:31:18.135Z,98.60
2022-07-29T22:34:11.633Z,98.30
2022-07-29T22:37:00.408Z,98.40
2022-07-29T22:39:49.098Z,98.60
2022-07-29T22:42:40.665Z,98.90
2022-07-29T22:45:30.881Z,98.80
2022-07-29T22:48:19.412Z,99.00
2022-07-29T22:51:07.984Z,99.00
2022-07-29T22:53:57.618Z,99.40
2022-07-29T22:56:46.053Z,98.90
2022-07-29T22:59:34.559Z,99.30
2022-07-29T23:02:24.395Z,99.00
2022-07-29T23:05:15.605Z,99.10
2022-07-29T23:08:04.398Z,99.10
2022-07-29T23:10:52.869Z,99.10
2022-07-29T23:13:41.449Z,99.20
2022-07-29T23:16:30.155Z,99.30
2022-07-29T23:19:20.043Z,99.30
2022-07-29T23:22:08.552Z,99.70
2022-07-29T23:24:57.049Z,99.60
2022-07-29T23:27:45.638Z,99.70
2022-07-29T23:30:34.164Z,99.60
2022-07-29T23:33:22.621Z,99.70
2022-07-29T23:36:12.430Z,99.90
2022-07-29T23:39:00.935Z,99.90
2022-07-29T23:41:49.461Z,99.90
2022-07-29T23:44:38.141Z,99.90
2022-07-29T23:47:26.952Z,99.90
2022-07-29T23:50:16.859Z,99.90
2022-07-29T23:53:06.706Z,99.90
2022-07-29T23:55:55.217Z,99.90
2022-07-29T23:58:43.759Z,99.90
